ACT        NSW        VIC        QLD        SA        WA        TAS        NT        INFO        CALC            by VK5ZD

  Atmospheric Gas Attenuation - ITU Rec 676-11   --------------- db/100km ---------------
VIC Stations Date Time Temp RH % AH g/m3 Dew Point Wind Direction Speed kph Gust kph Barometer mB Rainfall Since 9am 24GHz 47GHz 76GHz 122GHz 134GHz 241GHz
Aireys Inlet 11 22:00 12.3 64 6.95 5.7 30 44 1013.1 3.2 16.1 23.7 34.0 89.0 78.7 269.4
Ararat 11 15:00 12 64 6.82 5.4 28 1019.2 1 15.9 23.8 33.9 88.5 77.8 266.0
Avalon 11 22:00 10.3 86 8.24 8.1 22 28 1021.5 0.4 19.0 26.7 40.5 106.1 98.7 338.9
Bairnsdale 11 22:00 9.1 76 6.75 5.1 22 33 1017.5 0 15.8 24.4 34.8 90.9 79.7 272.3
Ballarat 11 22:00 7.5 84 6.73 5 15 22 1021.5 1.2 15.9 24.9 35.6 93.0 81.4 277.9
Ben Nevis 11 22:00 4.4 99 6.47 4.3 30 48 1013.1 1.8 15.4 25.1 35.5 93.0 80.5 274.5
Bendigo 11 22:00 8.4 76 6.45 4.4 11 15 1021.2 0 15.2 24.2 34.0 88.9 76.7 261.7
Cape Nelson 11 22:00 12.8 77 8.63 8.9 32 43 1024.1 0 19.7 26.6 40.9 107.3 101.0 347.3
Cape Otway 11 22:00 11.9 77 8.16 8 28 39 1021.8 0.8 18.7 26.1 39.3 103.1 95.6 328.4
Casterton 11 22:00 10.6 91 8.88 9.2 9 20 1024.1 0 20.3 27.7 43.1 113.2 107.4 369.4
Castlemaine 11 09:00 7 88 6.82 5.2 6 1013.1 2 16.1 24.9 35.8 93.7 82.5 282.0
Cerberus 11 22:00 13 64 7.26 6.4 20 35 1020 1.6 16.8 24.2 35.2 92.0 82.4 282.4
Charlton 11 22:00 10 71 6.67 5 9 15 1022.5 0 15.6 24.2 34.3 89.5 78.1 266.7
Coldstream 11 22:00 6.8 100 7.65 6.8 7 9 1020.7 10.2 17.9 26.7 39.7 104.1 94.8 324.9
Combienbar 11 20:00 6.1 73 5.34 1.6 24 39 1012.4 4.6 12.9 22.7 30.2 78.8 63.8 216.1
Dartmoor 11 22:00 9.6 98 8.98 9.3 0 0 1024.4 0.2 20.6 28.3 44.1 115.8 110.3 379.3
East Sale Airport 11 22:00 9.1 81 7.19 6 20 26 1018 1.8 16.8 25.1 36.6 95.7 85.6 292.9
Edenhope 11 22:00 10.1 84 7.95 7.5 7 11 1013.1 0 18.4 25.9 39.0 102.3 94.3 323.6
Eildon Fire Tower 11 22:00 5.2 88 6.06 3.4 24 35 1013.1 2.8 14.5 24.2 33.5 87.5 74.1 252.2
Essendon Airport 11 22:00 9.8 91 8.45 8.4 22 30 1021 1 19.5 27.1 41.6 109.1 102.2 351.2
Falls Creek 11 22:00 -2.3 97 4.01 -2.7 24 35 1012 7.2 10.3 22.7 27.9 72.7 52.5 175.2
Ferny Creek 11 22:00 7.3 73 5.77 2.8 6 9 1019.4 15.4 13.8 23.4 31.7 82.7 68.7 233.6
Frankston (Ballam Park) 11 22:00 11.5 65 6.71 5.2 6 13 1020.2 2.8 15.7 23.8 33.7 88.0 77.0 263.0
Gabo Island 11 22:00 11.3 81 8.26 8.2 61 78 1012.3 1.4 19.0 26.0 39.6 104.0 96.9 333.1
Geelong Racecourse 11 22:00 10.1 90 8.51 8.5 13 19 1021.4 0.8 19.6 27.2 41.7 109.4 102.7 352.9
Gelantipy 11 22:00 5.2 79 5.44 1.9 35 50 1014.7 0.4 13.2 23.2 31.0 81.0 66.0 223.6
Hamilton 11 22:00 8.3 88 7.42 6.4 11 15 1023.8 0.2 17.3 26.0 38.1 99.8 90.0 308.4
Hogan Island 11 22:00 11.9 68 7.2 6.2 63 74 1015.4 0 16.7 24.3 35.2 92.2 82.5 282.5
Hopetoun Airport 11 22:00 10.3 63 6.03 3.6 11 15 1023.8 0 14.2 23.2 31.7 82.7 69.7 237.3
Horsham 11 22:00 9.3 73 6.56 4.7 17 20 1023.9 0 15.4 24.3 34.2 89.3 77.4 264.4
Hunters Hill 11 22:00 2.7 96 5.6 2.1 11 17 1013.1 0 13.6 24.1 32.6 85.2 70.2 238.2
Kanagulk 11 22:00 10.1 77 7.28 6.3 9 13 1024.1 0 16.9 25.2 36.7 96.1 86.1 294.9
Kerang 11 15:00 16.9 36 5.18 1.7 33 1013.1 0 12.2 20.0 26.0 67.5 53.9 182.9
Kilmore Gap 11 22:00 6.2 100 7.36 6.2 28 46 1019.9 1 17.3 26.3 38.7 101.5 91.4 312.8
Kingfish B 11 20:50 14.2 62 7.57 7.1 57 69 1013.1 0 17.4 24.1 35.6 93.1 84.6 290.2
Kyabram 11 22:00 8.8 70 6.09 3.6 9 15 1013.1 0 14.4 23.3 32.1 83.9 71.1 242.3
Lake Dartmouth 11 09:00 8.5 73 6.24 4 17 1013.1 2 14.8 23.6 32.8 85.8 73.3 250.0
Lakes Entrance 11 15:00 13 62 7.03 6 33 1013.1 0.6 16.3 23.6 34.0 89.0 79.0 270.6
Latrobe Valley 11 22:00 9.1 83 7.37 6.4 22 30 1018.5 6.4 17.2 25.4 37.3 97.7 88.0 301.5
Laverton 11 22:00 10.4 84 8.1 7.8 20 30 1021.2 1.2 18.7 26.4 39.8 104.4 96.6 331.7
Longerenong 11 22:00 8.9 78 6.84 5.3 9 13 1013.1 0 16.0 24.4 35.0 91.7 80.8 276.2
Mallacoota 11 22:00 10 75 7.05 5.8 22 39 1012.6 3 16.4 24.4 35.4 92.6 82.4 281.8
Mangalore 11 22:00 8.6 73 6.28 4 7 13 1020.4 0.2 14.8 23.9 33.2 86.8 74.2 253.1
Maryborough 11 09:00 9.5 63 5.74 2.8 6 1013.1 3 13.7 22.5 30.5 79.6 66.1 224.7
Melbourne (Olympic Park) 11 22:00 10.5 87 8.44 8.4 9 17 1021 5 19.4 26.9 41.2 108.0 101.1 347.6
Melbourne Airport 11 22:00 9.2 90 8.04 7.7 15 17 1021.2 0.8 18.6 26.6 40.2 105.3 97.3 333.9
Mildura 11 22:00 12.1 46 4.93 0.8 9 13 1023.4 0 11.9 21.1 27.0 70.1 54.8 185.3
Moorabbin Airport 11 22:00 13.3 65 7.51 6.9 28 39 1020.6 6.4 17.3 24.6 36.0 94.3 85.4 292.7
Mortlake 11 22:00 9.7 100 9.22 9.7 17 30 1023.2 1.2 21.1 28.6 45.1 118.3 113.5 390.5
Mount Baw Baw 11 22:00 -0.4 99 4.67 -0.5 19 30 1013.1 22.8 11.7 23.4 30.0 78.2 60.1 202.3
Mount Buller 11 22:00 -2.1 99 4.15 -2.2 35 59 1013.1 9.6 10.6 22.9 28.5 74.1 54.3 181.6
Mount Gellibrand 11 22:00 8.9 96 8.41 8.3 17 22 1021.4 0.8 19.4 27.4 41.9 109.9 102.9 353.4
Mount Hotham 11 22:00 -2.9 99 3.92 -3 37 54 1013.1 0.2 10.2 22.8 27.8 72.3 51.7 172.4
Mount Hotham Airport 11 22:00 0.4 99 4.94 0.3 13 26 1014.4 0.6 12.3 23.6 30.9 80.5 63.3 213.4
Mount Moornapa 11 22:00 7 82 6.36 4.1 19 37 1013.1 4 15.1 24.2 33.9 88.7 76.4 260.4
Mount Nowa Nowa 11 22:00 7.7 77 6.25 3.9 24 39 1013.1 0 14.8 23.8 33.2 86.8 74.2 253.0
Mount William 11 22:00 2.8 100 5.87 2.8 35 54 1013.1 2.4 14.2 24.5 33.7 88.1 73.8 250.8
Nhill Aerodrome 11 22:00 10.9 60 5.97 3.5 15 17 1024.1 0 14.1 22.9 31.3 81.5 68.4 232.9
Omeo 11 22:00 5.4 83 5.79 2.8 7 11 1017.1 1.2 13.9 23.8 32.5 84.7 70.6 239.7
Orbost 11 22:00 9.9 73 6.82 5.3 17 28 1016.4 4.6 16.0 24.2 34.7 90.6 79.7 272.5
Port Fairy 11 22:00 12.7 78 8.68 9 24 35 1023.6 0.6 19.8 26.7 41.2 107.9 101.7 349.9
Portable Vpha (Delwp) 11 21:30 11.8 75 7.89 7.5 2 15 1013.1 0 18.2 25.3 37.9 99.4 91.5 313.9
Portable Vphb (Delwp) 11 22:00 9.3 93 8.36 8.3 2 4 1013.1 0 19.3 26.8 41.1 107.9 101.0 346.8
Portable Vphe (Delwp) 11 21:30 5.3 97 6.73 4.9 2 13 1013.1 0 15.9 25.2 36.2 94.8 83.1 283.8
Portable Vphf (Delwp) 11 21:30 9.4 81 7.33 6.3 2 6 1013.1 0 17.1 25.1 36.8 96.4 86.8 297.2
Portland Airport 11 22:00 12.9 69 7.78 7.4 13 20 1024.2 0.2 17.9 25.2 37.4 98.0 89.6 307.3
Pound Creek 11 22:00 12.8 56 6.27 4.3 30 44 1019.1 4.4 14.7 22.7 31.5 82.1 70.2 239.4
Puckapunyal West (Defence) 11 22:00 8.4 76 6.45 4.4 13 17 1013.1 0 15.2 23.9 33.7 88.1 76.2 259.9
Puckapunyal-Lyon Hill (Defence) 11 22:00 9.8 72 6.68 5 15 20 1013.1 0 15.7 23.9 34.0 89.0 77.8 265.7
Redesdale 11 22:00 8.4 72 6.11 3.7 4 6 1013.1 0 14.5 23.4 32.4 84.5 71.8 244.4
Rhyll 11 22:00 13 60 6.8 5.4 22 37 1019.9 1.6 15.8 23.5 33.4 87.3 76.6 262.0
Rutherglen 11 22:00 6.6 80 6.04 3.4 13 15 1013.1 0.2 14.4 23.8 32.8 85.7 72.5 246.8
Scoresby 11 22:00 8.7 84 7.27 6.2 0 0 1013.1 14.6 17.0 25.2 36.9 96.6 86.7 297.0
Sheoaks 11 22:00 9.4 80 7.24 6.1 11 20 1021.6 0 16.9 25.3 36.8 96.2 86.2 295.0
Shepparton 11 22:00 9.4 67 6.06 3.6 15 17 1020.5 0 14.3 23.3 32.1 83.6 70.7 240.6
Stawell 11 22:00 9.4 79 7.15 5.9 9 11 1022.7 0.2 16.7 25.2 36.5 95.4 85.1 291.1
Swan Hill 11 22:00 9.8 57 5.29 1.7 9 17 1022.7 0 12.7 22.1 29.1 75.6 60.8 206.0
Tatura 11 22:00 9.9 69 6.44 4.5 11 17 1013.1 0 15.1 23.5 33.0 86.3 74.6 254.6
Victoria Portable F 11 21:50 5.3 90 6.24 3.8 9 19 1013.1 1.8 14.9 24.4 34.2 89.3 76.4 260.4
Viewbank 11 22:00 9.7 99 9.13 9.6 11 19 1020.7 5.4 20.9 28.3 44.6 117.0 111.9 385.2
Walpeup 11 22:00 8.8 56 4.88 0.5 9 11 1013.1 0 11.8 21.4 27.5 71.6 56.0 189.2
Wangaratta 11 22:00 8.1 76 6.33 4.1 15 19 1019.4 0 15.0 24.1 33.6 87.8 75.3 256.7
Warracknabeal Airport 11 22:00 9.3 74 6.65 4.9 13 19 1023.3 0 15.6 24.4 34.5 90.2 78.6 268.4
Warragul (Nilma North) 11 22:00 8.8 90 7.84 7.3 9 19 1019.2 8.6 18.2 26.3 39.5 103.4 94.9 325.4
Warrnambool 11 22:00 11.5 88 9.09 9.6 26 35 1023.4 1.4 20.7 27.8 43.5 114.2 109.0 375.2
Westmere 11 22:00 9.4 94 8.5 8.5 15 22 1022.6 0.8 19.6 27.4 42.1 110.4 103.6 355.9
Wilsons Promontory 11 22:00 12.7 59 6.57 4.9 72 87 1014.9 0 15.3 23.1 32.5 84.8 73.7 251.8
Yanakie 11 22:00 12.4 57 6.23 4.1 35 44 1018.4 0 14.6 22.8 31.4 82.0 70.0 238.7
Yarram Airport 11 22:00 10.8 67 6.62 4.9 24 33 1017.5 4.2 15.5 23.7 33.5 87.6 76.3 260.7
Yarrawonga 11 22:00 8.7 74 6.4 4.3 9 13 1020.1 0 15.1 24.0 33.7 87.9 75.7 258.2

Last Refresh: 11-Apr-2021 21:44:27

Bureau of Meteorology